Time;durP1;ratioP1;P1;durP2;ratioP2;P2;SDS_P1;SDS_P2;PMS_P1;PMS_P2;Temp;Humidity;BMP_temperature;BMP_pressure;BME280_temperature;BME280_humidity;BME280_pressure;Samples;Min_cycle;Max_cycle;Signal;HPM_P1;HPM_P2
2021/08/21 00:01:14;;;;;;;28.73;6.55;;;;;;;13.57;78.55;100454.75;5067128;28;20064;-70
2021/08/21 00:03:39;;;;;;;24.13;5.35;;;;;;;13.56;78.44;100450.44;5067004;28;20017;-69
2021/08/21 00:06:04;;;;;;;21.45;6.07;;;;;;;13.54;78.84;100445.25;5067405;28;20029;-70
2021/08/21 00:08:30;;;;;;;27.30;5.60;;;;;;;13.41;78.88;100428.94;5066894;28;20060;-69
2021/08/21 00:10:56;;;;;;;26.85;6.00;;;;;;;13.51;79.68;100448.75;5065673;28;20039;-72
2021/08/21 00:13:21;;;;;;;16.60;5.43;;;;;;;13.48;79.71;100438.34;5067001;28;20024;-69
2021/08/21 00:15:47;;;;;;;23.33;5.53;;;;;;;13.50;79.82;100444.44;5066953;28;20021;-69
2021/08/21 00:18:12;;;;;;;18.70;5.55;;;;;;;13.52;79.98;100454.84;5066980;28;20017;-69
2021/08/21 00:20:38;;;;;;;20.70;5.70;;;;;;;13.53;80.10;100448.72;5066750;28;20050;-69
2021/08/21 00:23:03;;;;;;;23.83;5.55;;;;;;;13.53;79.92;100456.53;5066786;28;20025;-69
2021/08/21 00:25:29;;;;;;;32.92;6.18;;;;;;;13.50;80.05;100446.16;5066742;28;20087;-69
2021/08/21 00:27:54;;;;;;;22.45;6.10;;;;;;;13.52;79.97;100454.84;5066582;28;20024;-69
2021/08/21 00:30:19;;;;;;;27.85;6.63;;;;;;;13.47;80.12;100446.22;5065796;28;20021;-69
2021/08/21 00:32:45;;;;;;;24.58;6.35;;;;;;;13.53;80.02;100455.72;5064627;28;20083;-69
2021/08/21 00:35:10;;;;;;;25.48;5.60;;;;;;;13.54;79.81;100444.38;5066500;28;20093;-69
2021/08/21 00:37:36;;;;;;;24.48;6.60;;;;;;;13.56;80.03;100451.25;5066470;28;20325;-69
2021/08/21 00:40:03;;;;;;;24.40;6.30;;;;;;;13.56;79.90;100453.88;5066184;28;20081;-69
2021/08/21 00:42:28;;;;;;;23.83;6.00;;;;;;;13.56;80.00;100453.03;5066470;28;20045;-69
2021/08/21 00:44:54;;;;;;;16.45;5.15;;;;;;;13.54;80.07;100440.03;5066483;28;20534;-69
2021/08/21 00:47:20;;;;;;;22.60;6.75;;;;;;;13.53;80.05;100450.50;5064943;28;20025;-69
2021/08/21 00:49:48;;;;;;;23.90;6.22;;;;;;;13.57;79.75;100447.78;5066431;28;20100;-69
2021/08/21 00:52:17;;;;;;;22.27;5.50;;;;;;;13.58;79.64;100452.09;5066454;28;20496;-69
2021/08/21 00:54:42;;;;;;;16.83;5.22;;;;;;;13.53;79.79;100459.16;5066190;28;20032;-69
2021/08/21 00:57:10;;;;;;;32.35;6.25;;;;;;;13.53;79.87;100448.72;5066137;28;20076;-69
2021/08/21 00:59:38;;;;;;;25.60;6.25;;;;;;;13.57;79.81;100462.56;5066084;28;20039;-69
2021/08/21 01:02:05;;;;;;;22.77;5.78;;;;;;;13.55;80.03;100464.34;5065084;28;20532;-69
2021/08/21 01:04:32;;;;;;;24.38;6.20;;;;;;;13.49;80.08;100462.69;5064661;28;20259;-69
2021/08/21 01:07:06;;;;;;;24.80;5.57;;;;;;;13.48;80.14;100464.44;5066257;28;20108;-69
2021/08/21 01:09:31;;;;;;;32.67;6.63;;;;;;;13.51;80.12;100467.00;5065191;28;20393;-70
2021/08/21 01:11:57;;;;;;;19.98;5.70;;;;;;;13.53;80.17;100464.38;5065382;28;20050;-69
2021/08/21 01:14:26;;;;;;;26.35;6.50;;;;;;;13.54;80.31;100466.09;5065697;28;20021;-69
2021/08/21 01:16:53;;;;;;;34.35;6.20;;;;;;;13.51;80.36;100453.97;5064181;28;20071;-69
2021/08/21 01:19:21;;;;;;;20.05;6.05;;;;;;;13.59;80.42;100468.63;5065699;28;20016;-69
2021/08/21 01:21:46;;;;;;;23.08;6.82;;;;;;;13.59;80.50;100466.03;5066051;28;20048;-69
2021/08/21 01:24:13;;;;;;;21.38;5.55;;;;;;;13.58;80.80;100469.50;5065553;28;20358;-70
2021/08/21 01:26:49;;;;;;;19.73;5.68;;;;;;;13.57;80.81;100476.47;5065737;28;20104;-69
2021/08/21 01:29:15;;;;;;;27.27;5.93;;;;;;;13.54;80.70;100466.09;5065319;28;20485;-69
2021/08/21 01:31:40;;;;;;;24.38;6.40;;;;;;;13.58;80.45;100470.38;5065491;28;20051;-70
2021/08/21 01:34:05;;;;;;;25.73;6.38;;;;;;;13.54;80.63;100473.94;5065487;28;20028;-69
2021/08/21 01:36:46;;;;;;;22.17;5.13;;;;;;;13.55;80.37;100475.63;5065394;28;20100;-70
2021/08/21 01:39:13;;;;;;;24.25;6.00;;;;;;;13.51;80.91;100476.59;5065288;28;20017;-69
2021/08/21 01:41:41;;;;;;;21.63;6.15;;;;;;;13.47;81.05;100478.38;5065648;28;20140;-69
2021/08/21 01:44:12;;;;;;;26.48;6.15;;;;;;;13.45;81.15;100479.31;5064397;28;20033;-69
2021/08/21 01:46:37;;;;;;;26.98;5.32;;;;;;;13.46;81.18;100483.63;5065258;28;20025;-69
2021/08/21 01:49:11;;;;;;;35.30;7.80;;;;;;;13.48;81.25;100480.06;5064661;28;20051;-69
2021/08/21 01:51:38;;;;;;;23.67;6.28;;;;;;;13.45;81.98;100481.91;5065308;28;20080;-70
2021/08/21 01:54:04;;;;;;;31.13;6.63;;;;;;;13.44;82.30;100481.03;5064086;28;20086;-69
2021/08/21 01:56:29;;;;;;;28.42;6.18;;;;;;;13.48;81.98;100485.28;5065064;28;20521;-69
2021/08/21 01:58:55;;;;;;;33.00;7.82;;;;;;;13.51;82.10;100492.25;5064996;28;20103;-69
2021/08/21 02:01:20;;;;;;;24.00;5.88;;;;;;;13.54;81.83;100492.19;5065279;28;20456;-69
2021/08/21 02:03:46;;;;;;;22.00;6.43;;;;;;;13.55;81.78;100496.50;5064950;28;20039;-69
2021/08/21 02:06:15;;;;;;;25.65;6.75;;;;;;;13.58;81.55;100496.44;5064793;28;20085;-69
2021/08/21 02:08:41;;;;;;;22.02;5.75;;;;;;;13.62;81.50;100494.66;5063164;28;20041;-70
2021/08/21 02:11:07;;;;;;;20.80;5.25;;;;;;;13.65;81.31;100497.19;5063631;28;20097;-70
2021/08/21 02:13:34;;;;;;;27.77;7.32;;;;;;;13.58;80.63;100503.41;5063344;28;20025;-70
2021/08/21 02:15:59;;;;;;;22.42;5.57;;;;;;;13.50;80.54;100498.31;5064575;28;20104;-70
2021/08/21 02:18:25;;;;;;;26.65;7.10;;;;;;;13.45;80.64;100502.78;5064251;28;20028;-69
2021/08/21 02:20:50;;;;;;;20.77;6.50;;;;;;;13.42;80.72;100500.22;5064532;28;20415;-69
2021/08/21 02:23:15;;;;;;;20.75;6.60;;;;;;;13.41;80.50;100495.88;5062201;28;20453;-69
2021/08/21 02:25:41;;;;;;;17.90;6.38;;;;;;;13.35;80.38;100500.34;5064676;28;20025;-69
2021/08/21 02:28:08;;;;;;;20.92;6.70;;;;;;;13.30;80.25;100504.78;5064404;28;20108;-70
2021/08/21 02:30:36;;;;;;;30.23;7.53;;;;;;;13.32;80.60;100505.59;5063043;28;20072;-69
2021/08/21 02:33:02;;;;;;;29.05;7.80;;;;;;;13.29;80.84;100496.97;5064247;28;20025;-69
2021/08/21 02:35:27;;;;;;;22.70;6.07;;;;;;;13.36;81.01;100501.19;5061901;28;20120;-69
2021/08/21 02:37:53;;;;;;;26.92;7.07;;;;;;;13.38;81.33;100499.41;5063615;28;20024;-69
2021/08/21 02:40:18;;;;;;;32.92;7.25;;;;;;;13.42;81.52;100497.63;5064110;28;20025;-69
2021/08/21 02:42:43;;;;;;;23.83;6.15;;;;;;;13.46;81.52;100491.44;5064282;28;20032;-69
2021/08/21 02:45:10;;;;;;;21.52;6.93;;;;;;;13.49;81.75;100487.03;5062843;28;20016;-69
2021/08/21 02:47:35;;;;;;;30.52;6.63;;;;;;;13.52;81.67;100488.75;5064171;28;20027;-69
2021/08/21 02:50:01;;;;;;;19.00;6.07;;;;;;;13.57;81.59;100491.25;5064113;28;20053;-69
2021/08/21 02:52:26;;;;;;;26.63;6.05;;;;;;;13.56;81.79;100492.16;5063989;28;20325;-69
2021/08/21 02:54:51;;;;;;;26.50;5.68;;;;;;;13.54;81.81;100484.38;5062594;28;20025;-69
2021/08/21 02:57:17;;;;;;;22.73;6.18;;;;;;;13.53;81.72;100494.84;5063998;28;20056;-69
2021/08/21 02:59:42;;;;;;;23.63;6.28;;;;;;;13.52;81.82;100491.34;5063836;28;20230;-69
2021/08/21 03:02:07;;;;;;;25.95;6.43;;;;;;;13.51;81.84;100500.91;5063888;28;20084;-69
2021/08/21 03:04:33;;;;;;;26.52;6.50;;;;;;;13.46;81.70;100494.06;5064019;28;20377;-69
2021/08/21 03:06:58;;;;;;;23.55;7.07;;;;;;;13.46;81.75;100501.88;5063982;28;20028;-69
2021/08/21 03:09:23;;;;;;;26.77;6.15;;;;;;;13.44;81.72;100496.69;5063545;28;20045;-69
2021/08/21 03:11:49;;;;;;;21.88;7.20;;;;;;;13.40;81.84;100495.03;5063766;28;20021;-69
2021/08/21 03:14:14;;;;;;;25.02;6.45;;;;;;;13.34;81.84;100496.00;5063833;28;20566;-70
2021/08/21 03:16:39;;;;;;;22.63;6.03;;;;;;;13.31;82.07;100503.88;5063894;28;20078;-69
2021/08/21 03:19:05;;;;;;;20.17;6.10;;;;;;;13.21;82.24;100492.75;5063712;28;20389;-70
2021/08/21 03:21:30;;;;;;;18.55;6.20;;;;;;;13.29;82.18;100504.81;5062280;28;20255;-69
2021/08/21 03:23:55;;;;;;;20.15;5.55;;;;;;;13.24;82.17;100504.88;5063314;28;20100;-69
2021/08/21 03:26:21;;;;;;;26.15;7.03;;;;;;;13.17;81.64;100505.88;5063540;28;20492;-70
2021/08/21 03:28:46;;;;;;;20.63;6.25;;;;;;;13.07;81.27;100521.66;5063589;28;20113;-70
2021/08/21 03:31:12;;;;;;;29.25;6.70;;;;;;;12.85;80.44;100529.84;5062654;28;20060;-70
2021/08/21 03:33:37;;;;;;;25.02;7.53;;;;;;;12.70;80.58;100530.09;5064752;28;20048;-69
2021/08/21 03:36:03;;;;;;;22.83;7.22;;;;;;;12.53;80.93;100528.59;5070266;28;20025;-70
2021/08/21 03:38:28;;;;;;;34.72;6.78;;;;;;;12.42;81.19;100528.75;5070082;28;20032;-69
2021/08/21 03:40:53;;;;;;;19.10;6.18;;;;;;;12.36;81.24;100528.84;5070214;28;20121;-70
2021/08/21 03:43:19;;;;;;;34.92;7.00;;;;;;;12.31;81.37;100528.91;5070992;28;20025;-70
2021/08/21 03:45:44;;;;;;;29.38;7.65;;;;;;;12.29;81.98;100520.25;5070332;28;20025;-70
2021/08/21 03:48:11;;;;;;;31.83;7.05;;;;;;;12.36;82.35;100528.84;5070265;28;20036;-70
2021/08/21 03:50:37;;;;;;;27.98;6.57;;;;;;;12.44;82.46;100533.94;5068372;28;20132;-72
2021/08/21 03:53:02;;;;;;;26.77;6.63;;;;;;;12.49;82.64;100534.75;5075852;28;20032;-69
2021/08/21 03:55:28;;;;;;;33.72;6.70;;;;;;;12.60;83.20;100529.38;5071446;28;20033;-69
2021/08/21 03:57:53;;;;;;;33.70;7.60;;;;;;;12.62;83.11;100523.25;5068666;28;20020;-69
2021/08/21 04:00:19;;;;;;;29.27;7.05;;;;;;;12.75;83.13;100541.28;5069918;28;20408;-69
2021/08/21 04:02:44;;;;;;;21.58;6.57;;;;;;;12.74;83.09;100531.75;5069853;28;20021;-69
2021/08/21 04:05:09;;;;;;;31.27;6.55;;;;;;;12.79;83.41;100532.56;5069592;28;20027;-69
2021/08/21 04:07:35;;;;;;;25.90;6.95;;;;;;;12.80;83.43;100536.88;5069606;28;20051;-69
2021/08/21 04:10:02;;;;;;;32.50;6.70;;;;;;;12.86;83.44;100536.78;5069604;28;20041;-69
2021/08/21 04:12:28;;;;;;;22.77;6.13;;;;;;;12.93;83.75;100534.94;5070078;28;20036;-69
2021/08/21 04:14:53;;;;;;;15.70;5.78;;;;;;;13.02;84.20;100537.38;5069936;28;20017;-69
2021/08/21 04:17:18;;;;;;;26.70;5.72;;;;;;;13.12;84.03;100532.88;5069989;28;20059;-68
2021/08/21 04:19:44;;;;;;;22.50;6.60;;;;;;;13.21;84.00;100536.22;5069832;28;20074;-69
2021/08/21 04:22:09;;;;;;;28.00;6.32;;;;;;;13.29;83.93;100541.31;5069775;28;20112;-69
2021/08/21 04:24:34;;;;;;;31.15;6.07;;;;;;;13.37;84.09;100537.66;5069795;28;20032;-69
2021/08/21 04:27:00;;;;;;;24.02;5.50;;;;;;;13.47;83.94;100535.75;5069745;28;20063;-70
2021/08/21 04:29:25;;;;;;;18.73;5.07;;;;;;;13.66;84.18;100530.22;5068181;28;20035;-70
2021/08/21 04:31:50;;;;;;;18.17;5.00;;;;;;;14.07;84.63;100539.84;5069819;28;20548;-69
2021/08/21 04:34:16;;;;;;;26.10;4.82;;;;;;;14.52;85.47;100544.09;5069816;28;20021;-69
2021/08/21 04:36:41;;;;;;;17.55;4.43;;;;;;;15.01;85.86;100543.88;5069830;28;20135;-69
2021/08/21 04:39:06;;;;;;;17.35;4.72;;;;;;;15.55;85.91;100539.00;5069616;28;20021;-70
2021/08/21 04:41:32;;;;;;;18.38;4.53;;;;;;;16.00;85.15;100544.78;5069719;28;20040;-70
2021/08/21 04:43:57;;;;;;;11.45;4.40;;;;;;;16.37;83.91;100544.59;5068174;28;20048;-70
2021/08/21 04:46:23;;;;;;;16.88;3.85;;;;;;;16.73;82.72;100546.94;5065726;28;20024;-70
2021/08/21 04:48:48;;;;;;;15.45;3.80;;;;;;;17.08;81.44;100555.47;5065233;28;20021;-68
2021/08/21 04:51:13;;;;;;;15.65;3.75;;;;;;;17.41;80.18;100556.13;5065269;28;20044;-70
2021/08/21 04:53:39;;;;;;;17.25;4.05;;;;;;;17.74;78.83;100563.72;5066109;28;20033;-70
2021/08/21 04:56:05;;;;;;;15.02;4.40;;;;;;;18.04;77.51;100554.75;5066320;28;20037;-70
2021/08/21 04:58:30;;;;;;;20.73;4.32;;;;;;;18.37;76.21;100550.94;5066096;28;20079;-71
2021/08/21 05:00:56;;;;;;;17.77;3.67;;;;;;;18.63;74.48;100544.66;5066184;28;20021;-70
2021/08/21 05:03:21;;;;;;;12.18;4.68;;;;;;;18.95;72.86;100555.63;5065991;28;20496;-69
2021/08/21 05:05:47;;;;;;;10.57;3.83;;;;;;;19.13;71.88;100545.28;5047099;28;20093;-69
2021/08/21 05:08:12;;;;;;;13.10;2.90;;;;;;;19.52;70.80;100556.78;5045758;28;20381;-69
2021/08/21 05:10:38;;;;;;;14.65;3.88;;;;;;;19.93;69.74;100557.66;5045764;28;20031;-69
2021/08/21 05:13:03;;;;;;;15.20;4.28;;;;;;;20.42;68.95;100558.97;5045848;28;20029;-69
2021/08/21 05:15:31;;;;;;;11.70;3.92;;;;;;;20.98;67.14;100558.94;5045962;28;20028;-70
2021/08/21 05:17:57;;;;;;;12.15;3.53;;;;;;;21.68;64.83;100565.09;5045937;28;20052;-70
2021/08/21 05:20:29;;;;;;;9.57;3.75;;;;;;;22.28;62.31;100566.31;5045795;28;20021;-71
2021/08/21 05:23:06;;;;;;;;;;;;;;;22.29;57.55;100573.31;5046424;28;20029;-70
2021/08/21 05:25:37;;;;;;;10.27;3.47;;;;;;;22.08;55.24;100575.34;5045752;28;19985;-70
2021/08/21 05:28:03;;;;;;;10.73;3.50;;;;;;;21.77;56.79;100591.03;5045452;28;20025;-70
2021/08/21 05:30:30;;;;;;;8.30;3.10;;;;;;;22.15;56.05;100591.72;5045504;28;20034;-71
2021/08/21 05:32:56;;;;;;;10.95;3.50;;;;;;;22.26;55.86;100592.00;5045542;28;20052;-70
2021/08/21 05:35:21;;;;;;;10.98;3.60;;;;;;;22.46;53.48;100599.78;5045564;28;20470;-70
2021/08/21 05:37:47;;;;;;;11.40;3.72;;;;;;;22.15;52.38;100602.31;5045530;28;20048;-71
2021/08/21 05:40:12;;;;;;;10.93;4.03;;;;;;;21.76;52.78;100610.47;5045277;28;20021;-71
2021/08/21 05:42:38;;;;;;;10.50;3.28;;;;;;;21.61;53.25;100613.91;5045494;28;20021;-71
2021/08/21 05:45:04;;;;;;;9.38;3.25;;;;;;;21.60;54.23;100607.75;5045242;28;20021;-71
2021/08/21 05:47:29;;;;;;;14.20;3.60;;;;;;;22.04;53.27;100616.94;5045227;28;20049;-70
2021/08/21 05:50:00;;;;;;;11.40;4.45;;;;;;;22.23;52.38;100608.03;5045083;28;20072;-70
2021/08/21 05:52:25;;;;;;;9.90;3.65;;;;;;;22.06;52.15;100622.13;5045207;28;20033;-70
2021/08/21 05:54:51;;;;;;;13.77;3.90;;;;;;;21.60;52.12;100620.13;5043900;28;20040;-71
2021/08/21 05:57:16;;;;;;;12.30;3.28;;;;;;;21.17;53.63;100616.94;5044914;28;20017;-70
2021/08/21 05:59:41;;;;;;;8.30;3.13;;;;;;;21.49;54.21;100621.53;5043513;28;20022;-70
2021/08/21 06:02:07;;;;;;;9.43;3.25;;;;;;;21.92;53.92;100625.53;5045186;28;20071;-71
2021/08/21 06:04:32;;;;;;;8.93;3.40;;;;;;;22.50;53.23;100615.38;5044922;28;20103;-70
2021/08/21 06:06:58;;;;;;;9.93;3.28;;;;;;;23.13;51.77;100625.16;5044952;28;20029;-71
2021/08/21 06:09:23;;;;;;;10.40;3.30;;;;;;;23.67;50.87;100623.78;5044716;28;20034;-71
2021/08/21 06:11:49;;;;;;;8.20;2.67;;;;;;;24.23;49.37;100615.06;5044829;28;20056;-71
2021/08/21 06:14:14;;;;;;;10.32;3.30;;;;;;;24.79;48.25;100613.34;5044977;28;20025;-71
2021/08/21 06:16:39;;;;;;;11.32;3.15;;;;;;;25.43;47.38;100618.94;5042777;28;20022;-71
2021/08/21 06:19:05;;;;;;;8.70;3.53;;;;;;;25.88;46.29;100623.84;5043253;28;20028;-71
2021/08/21 06:21:30;;;;;;;7.28;2.85;;;;;;;26.73;45.19;100619.63;5044552;28;20579;-71
2021/08/21 06:23:55;;;;;;;10.60;3.20;;;;;;;27.10;44.06;100621.38;5044408;28;20029;-71
2021/08/21 06:26:21;;;;;;;12.27;3.30;;;;;;;27.67;42.86;100622.50;5044535;28;20022;-72
2021/08/21 06:28:46;;;;;;;13.15;3.17;;;;;;;27.83;42.36;100622.13;5044561;28;20064;-71
2021/08/21 06:31:11;;;;;;;10.52;3.55;;;;;;;28.09;41.22;100627.22;5044544;28;20029;-72
2021/08/21 06:33:37;;;;;;;8.63;3.08;;;;;;;28.24;40.45;100633.16;5044551;28;20029;-72
2021/08/21 06:36:02;;;;;;;11.18;3.88;;;;;;;28.32;40.24;100625.41;5044606;28;20029;-71
2021/08/21 06:38:27;;;;;;;14.23;3.70;;;;;;;28.49;39.16;100630.34;5044268;28;20025;-71
2021/08/21 06:40:53;;;;;;;10.55;3.42;;;;;;;28.51;39.07;100631.06;5042876;28;20097;-72
2021/08/21 06:43:19;;;;;;;10.35;3.55;;;;;;;28.58;38.71;100630.44;5042967;28;20074;-72
2021/08/21 06:45:44;;;;;;;9.65;3.40;;;;;;;28.72;38.62;100644.50;5044367;28;20018;-72
2021/08/21 06:48:09;;;;;;;17.40;3.65;;;;;;;28.70;38.23;100643.78;5044110;28;20021;-72
2021/08/21 06:50:36;;;;;;;8.40;2.90;;;;;;;28.62;38.55;100639.06;5044271;28;20029;-72
2021/08/21 06:53:02;;;;;;;11.75;3.13;;;;;;;28.80;38.15;100643.88;5044194;28;20025;-73
2021/08/21 06:55:28;;;;;;;13.02;3.33;;;;;;;29.20;37.52;100637.88;5044051;28;20026;-72
2021/08/21 06:57:54;;;;;;;8.98;3.28;;;;;;;29.20;36.99;100653.09;5044203;28;20052;-72
2021/08/21 07:00:20;;;;;;;9.98;3.10;;;;;;;29.28;36.01;100647.09;5043712;28;20025;-72
2021/08/21 07:02:45;;;;;;;8.93;2.75;;;;;;;29.42;36.25;100656.59;5043942;28;20220;-72
2021/08/21 07:05:10;;;;;;;13.30;3.10;;;;;;;29.61;35.55;100655.91;5043928;28;20045;-72
2021/08/21 07:07:36;;;;;;;9.57;3.10;;;;;;;29.58;35.67;100661.50;5043486;28;20033;-72
2021/08/21 07:10:04;;;;;;;5.82;2.40;;;;;;;29.75;35.06;100659.19;5043386;28;20133;-72
2021/08/21 07:12:29;;;;;;;9.13;2.47;;;;;;;29.74;34.32;100660.19;5042538;28;20037;-73
2021/08/21 07:14:54;;;;;;;6.97;2.17;;;;;;;29.87;33.79;100654.63;5043866;28;20037;-71
2021/08/21 07:17:20;;;;;;;7.60;2.63;;;;;;;29.83;33.52;100664.72;5043900;28;20038;-71
2021/08/21 07:19:45;;;;;;;9.30;3.88;;;;;;;30.10;33.16;100670.50;5043576;28;20045;-71
2021/08/21 07:22:10;;;;;;;9.27;2.80;;;;;;;30.18;33.03;100668.84;5043651;28;20091;-72
2021/08/21 07:24:36;;;;;;;9.75;2.78;;;;;;;30.17;33.52;100663.63;5043846;28;20022;-72
2021/08/21 07:27:01;;;;;;;6.07;2.38;;;;;;;30.10;33.01;100665.16;5043638;28;20036;-72
2021/08/21 07:29:27;;;;;;;6.25;2.40;;;;;;;30.17;31.76;100677.00;5042414;28;20029;-71
2021/08/21 07:31:52;;;;;;;7.22;2.78;;;;;;;29.93;31.45;100680.84;5042729;28;20021;-71
2021/08/21 07:34:17;;;;;;;7.28;2.70;;;;;;;30.11;31.41;100678.41;5043323;28;20045;-71
2021/08/21 07:36:43;;;;;;;7.88;2.33;;;;;;;30.27;30.82;100677.06;5043402;28;20052;-72
2021/08/21 07:39:08;;;;;;;5.50;2.10;;;;;;;30.57;30.70;100688.69;5043433;28;20028;-71
2021/08/21 07:41:35;;;;;;;5.20;2.22;;;;;;;30.65;30.58;100680.84;5043363;28;20025;-72
2021/08/21 07:44:00;;;;;;;10.20;2.00;;;;;;;30.99;29.79;100674.22;5043499;28;20036;-73
2021/08/21 07:46:26;;;;;;;7.78;2.30;;;;;;;31.20;29.33;100678.59;5043439;28;20029;-72
2021/08/21 07:48:51;;;;;;;10.68;2.72;;;;;;;31.09;29.46;100684.97;5043532;28;20472;-71
2021/08/21 07:51:17;;;;;;;5.45;2.20;;;;;;;30.87;29.44;100684.25;5043191;28;20501;-70
2021/08/21 07:53:42;;;;;;;7.40;2.00;;;;;;;30.17;29.98;100683.22;5043206;28;20021;-71
2021/08/21 07:56:07;;;;;;;5.70;2.83;;;;;;;29.33;30.77;100687.63;5043351;28;20025;-72
2021/08/21 07:58:33;;;;;;;3.85;2.20;;;;;;;28.60;31.53;100696.22;5043197;28;20100;-72
2021/08/21 08:01:00;;;;;;;7.68;2.65;;;;;;;27.82;32.02;100692.47;5042938;28;20064;-72
2021/08/21 08:03:25;;;;;;;5.07;2.30;;;;;;;27.18;32.72;100689.22;5043208;28;20025;-72
2021/08/21 08:05:51;;;;;;;6.35;2.42;;;;;;;26.95;33.98;100692.59;5043454;28;20018;-71
2021/08/21 08:08:16;;;;;;;7.78;2.33;;;;;;;27.19;34.05;100699.75;5043172;28;20429;-70
2021/08/21 08:10:42;;;;;;;6.53;2.33;;;;;;;27.06;33.95;100691.00;5043088;28;20025;-71
2021/08/21 08:13:08;;;;;;;5.50;2.17;;;;;;;27.07;33.67;100700.69;5043263;28;20113;-71
2021/08/21 08:15:33;;;;;;;8.27;2.00;;;;;;;26.99;34.01;100698.56;5042340;28;20025;-71
2021/08/21 08:17:59;;;;;;;4.55;1.90;;;;;;;27.00;33.81;100699.41;5042801;28;20014;-71
2021/08/21 08:20:26;;;;;;;5.03;1.90;;;;;;;27.08;32.83;100702.38;5043906;28;20021;-71
2021/08/21 08:22:52;;;;;;;5.57;1.75;;;;;;;27.37;32.42;100709.16;5046881;28;20021;-71
2021/08/21 08:25:17;;;;;;;5.90;2.30;;;;;;;27.11;32.50;100712.78;5046892;28;20101;-72
2021/08/21 08:27:45;;;;;;;6.78;2.35;;;;;;;26.88;33.12;100707.34;5046792;28;20593;-71
2021/08/21 08:30:11;;;;;;;6.75;2.08;;;;;;;26.55;33.36;100711.50;5046783;28;20115;-71
2021/08/21 08:32:36;;;;;;;4.20;2.00;;;;;;;26.18;33.89;100715.75;5045386;28;20026;-71
2021/08/21 08:35:02;;;;;;;4.97;1.98;;;;;;;25.64;34.74;100717.63;5045313;28;20032;-71
2021/08/21 08:37:27;;;;;;;5.07;1.98;;;;;;;25.13;35.58;100716.50;5046742;28;20047;-71
2021/08/21 08:39:53;;;;;;;8.60;2.33;;;;;;;24.65;36.18;100720.41;5046188;28;20021;-71
2021/08/21 08:42:21;;;;;;;7.55;1.80;;;;;;;24.29;36.78;100735.03;5046698;28;20056;-72
2021/08/21 08:44:46;;;;;;;7.88;2.28;;;;;;;23.89;37.40;100725.88;5046363;28;20028;-72
2021/08/21 08:47:16;;;;;;;6.53;1.90;;;;;;;23.56;37.82;100730.44;5045156;28;20022;-71
2021/08/21 08:49:48;;;;;;;6.55;2.17;;;;;;;23.25;38.26;100733.03;5046403;28;20022;-72
2021/08/21 08:52:18;;;;;;;8.52;2.88;;;;;;;23.00;39.25;100730.91;5045173;28;20025;-71
2021/08/21 08:54:44;;;;;;;4.20;1.90;;;;;;;22.91;39.64;100737.56;5046113;28;20025;-71
2021/08/21 08:57:17;;;;;;;5.45;1.90;;;;;;;22.78;39.42;100735.59;5045692;28;20113;-72
2021/08/21 08:59:43;;;;;;;6.22;2.20;;;;;;;22.68;39.77;100742.34;5044743;28;20013;-71
2021/08/21 09:02:09;;;;;;;5.93;2.00;;;;;;;22.43;39.81;100750.69;5046088;28;20032;-71
2021/08/21 09:04:34;;;;;;;7.95;2.15;;;;;;;22.17;39.98;100748.50;5046208;28;20390;-72
2021/08/21 09:06:59;;;;;;;3.58;1.58;;;;;;;21.95;40.64;100751.41;5046151;28;20086;-71
2021/08/21 09:09:26;;;;;;;4.90;2.13;;;;;;;21.62;43.01;100731.84;5045621;28;20037;-71
2021/08/21 09:11:54;;;;;;;4.88;1.88;;;;;;;21.41;45.05;100747.81;5045739;28;20076;-69
2021/08/21 09:14:28;;;;;;;5.80;2.50;;;;;;;21.18;45.99;100755.91;5045931;28;20056;-69
2021/08/21 09:17:13;;;;;;;6.22;2.22;;;;;;;21.02;46.75;100758.41;5045884;28;20025;-69
2021/08/21 09:19:39;;;;;;;7.80;3.08;;;;;;;20.87;47.74;100761.75;5045992;28;20025;-68
2021/08/21 09:22:06;;;;;;;9.38;2.60;;;;;;;20.80;48.27;100750.63;5044822;28;20048;-69
2021/08/21 09:24:35;;;;;;;10.07;2.50;;;;;;;20.55;48.76;100741.19;5045207;28;20105;-69
2021/08/21 09:27:16;;;;;;;12.02;2.78;;;;;;;20.56;49.12;100751.69;5043461;28;20032;-69
2021/08/21 09:29:42;;;;;;;11.15;2.55;;;;;;;20.50;49.35;100757.22;5045090;28;20025;-69
2021/08/21 09:32:09;;;;;;;7.70;2.38;;;;;;;20.38;50.45;100760.41;5044114;28;20041;-69
2021/08/21 09:34:34;;;;;;;8.60;3.10;;;;;;;20.31;50.68;100767.72;5045003;28;20322;-69
2021/08/21 09:37:00;;;;;;;10.30;2.35;;;;;;;20.22;51.77;100766.38;5045042;28;20032;-70
2021/08/21 09:39:36;;;;;;;13.35;2.70;;;;;;;20.12;52.21;100770.31;5044927;28;20021;-70
2021/08/21 09:42:04;;;;;;;8.02;3.00;;;;;;;20.09;52.59;100767.81;5044684;28;20036;-69
2021/08/21 09:44:36;;;;;;;7.80;2.78;;;;;;;20.11;52.73;100765.97;5043659;28;20052;-69
2021/08/21 09:47:12;;;;;;;9.93;3.22;;;;;;;20.09;53.04;100767.81;5044963;28;20022;-70
2021/08/21 09:49:39;;;;;;;18.25;2.95;;;;;;;20.08;53.33;100779.28;5044948;28;20044;-69
2021/08/21 09:52:14;;;;;;;8.30;2.55;;;;;;;20.25;53.06;100776.78;5044840;28;20051;-70
2021/08/21 09:54:41;;;;;;;4.82;2.20;;;;;;;20.59;52.76;100781.50;5044692;28;20036;-69
2021/08/21 09:57:10;;;;;;;9.00;2.55;;;;;;;20.63;52.38;100781.28;5043128;28;20105;-69
2021/08/21 09:59:37;;;;;;;10.10;2.65;;;;;;;20.43;52.64;100780.38;5044701;28;20431;-69
2021/08/21 10:02:08;;;;;;;6.90;2.38;;;;;;;20.35;53.38;100776.38;5044617;28;20034;-70
2021/08/21 10:04:35;;;;;;;6.10;2.30;;;;;;;20.21;53.75;100780.44;5044488;28;20104;-69
2021/08/21 10:07:05;;;;;;;9.35;3.25;;;;;;;20.17;53.82;100778.88;5044470;28;20049;-69
2021/08/21 10:09:32;;;;;;;8.10;2.90;;;;;;;20.09;53.95;100776.59;5044181;28;20041;-69
2021/08/21 10:11:58;;;;;;;12.63;3.08;;;;;;;20.14;53.47;100789.56;5044533;28;20574;-69
2021/08/21 10:14:25;;;;;;;8.10;2.63;;;;;;;20.19;53.21;100788.44;5044445;28;20198;-70
2021/08/21 10:16:50;;;;;;;7.75;2.30;;;;;;;20.45;53.19;100795.28;5044480;28;20022;-69
2021/08/21 10:19:18;;;;;;;6.93;2.72;;;;;;;21.79;51.69;100779.44;5044373;28;20017;-69
2021/08/21 10:21:52;;;;;;;5.75;1.77;;;;;;;23.62;48.67;100776.91;5043748;28;20207;-70
2021/08/21 10:24:47;;;;;;;7.50;1.98;;;;;;;25.47;44.40;100777.22;5044068;28;20017;-70
2021/08/21 10:27:30;;;;;;;7.05;2.00;;;;;;;26.70;42.60;100778.75;5042909;28;20040;-70
2021/08/21 10:30:20;;;;;;;6.35;2.30;;;;;;;28.00;40.04;100772.91;5044515;28;20532;-71
2021/08/21 10:33:03;;;;;;;9.27;2.00;;;;;;;28.75;37.93;100782.28;5044499;28;20056;-68
2021/08/21 10:35:43;;;;;;;7.65;2.20;;;;;;;28.67;37.61;100781.09;5044271;28;20043;-71
2021/08/21 10:38:31;;;;;;;4.32;1.80;;;;;;;27.45;39.07;100784.06;5044751;28;20610;-68
2021/08/21 10:41:20;;;;;;;9.63;2.55;;;;;;;26.63;40.73;100783.66;5044137;28;20018;-69
2021/08/21 10:43:54;;;;;;;9.85;2.17;;;;;;;25.72;42.12;100781.78;5043223;28;20025;-69
2021/08/21 10:46:29;;;;;;;6.22;1.88;;;;;;;25.91;42.71;100779.72;5044273;28;20029;-69
2021/08/21 10:48:55;;;;;;;5.25;2.30;;;;;;;26.41;41.40;100787.84;5044075;28;20049;-70
2021/08/21 10:51:37;;;;;;;6.00;1.95;;;;;;;26.02;41.74;100786.94;5043043;28;20363;-69
2021/08/21 10:54:24;;;;;;;4.32;1.95;;;;;;;25.65;43.07;100787.63;5042673;28;20083;-68
2021/08/21 10:56:50;;;;;;;6.35;1.80;;;;;;;26.61;41.78;100790.91;5043745;28;20037;-68
2021/08/21 10:59:41;;;;;;;7.57;1.98;;;;;;;27.81;39.32;100786.78;5043924;28;20044;-68
2021/08/21 11:02:25;;;;;;;9.15;1.85;;;;;;;28.40;37.67;100784.13;5043924;28;20033;-70
2021/08/21 11:04:51;;;;;;;7.18;1.80;;;;;;;28.91;36.68;100785.44;5043775;28;20022;-69
2021/08/21 11:07:41;;;;;;;6.95;1.75;;;;;;;29.81;35.39;100779.91;5044055;28;20422;-69
2021/08/21 11:10:16;;;;;;;7.93;2.20;;;;;;;30.60;34.11;100787.53;5043465;28;20080;-68
2021/08/21 11:12:48;;;;;;;4.30;1.67;;;;;;;30.99;32.35;100786.81;5043738;28;20267;-70
2021/08/21 11:15:31;;;;;;;6.43;2.28;;;;;;;30.66;31.96;100796.84;5043857;28;20029;-70
2021/08/21 11:17:57;;;;;;;4.85;1.38;;;;;;;30.94;30.84;100794.44;5042821;28;20017;-69
2021/08/21 11:20:27;;;;;;;5.15;2.10;;;;;;;30.85;30.16;100787.22;5043571;28;20109;-69
2021/08/21 11:23:07;;;;;;;7.45;1.60;;;;;;;29.97;30.75;100789.31;5043834;28;20009;-69